createdAt,value
2023-03-27T00:02:21.516Z,91.75
2023-03-27T00:07:24.274Z,92.18
2023-03-27T00:12:26.957Z,92.16
2023-03-27T00:17:30.215Z,92.30
2023-03-27T00:22:32.921Z,92.55
2023-03-27T00:27:36.094Z,93.24
2023-03-27T00:32:38.743Z,93.95
2023-03-27T00:37:41.861Z,94.32
2023-03-27T00:42:46.107Z,94.38
2023-03-27T00:47:56.659Z,94.05
2023-03-27T00:53:04.429Z,93.90
2023-03-27T00:58:12.466Z,94.61
2023-03-27T01:03:16.309Z,94.52
2023-03-27T01:08:19.262Z,94.44
2023-03-27T01:13:39.141Z,94.55
2023-03-27T01:19:08.470Z,94.73
2023-03-27T01:24:29.933Z,95.40
2023-03-27T01:29:35.380Z,95.56
2023-03-27T01:35:11.818Z,95.43
2023-03-27T01:40:25.206Z,95.25
2023-03-27T01:45:42.891Z,95.55
2023-03-27T01:50:50.071Z,96.18
2023-03-27T01:55:58.445Z,96.27
2023-03-27T02:01:02.930Z,96.59
2023-03-27T02:06:14.370Z,96.55
2023-03-27T02:11:17.608Z,97.05
2023-03-27T02:16:25.280Z,97.70
2023-03-27T02:21:28.071Z,98.35
2023-03-27T02:26:30.893Z,98.91
2023-03-27T02:31:35.157Z,98.91
2023-03-27T02:36:44.551Z,98.56
2023-03-27T02:42:04.696Z,98.16
2023-03-27T02:47:12.900Z,97.57
2023-03-27T02:52:21.691Z,97.76
2023-03-27T02:57:27.974Z,97.62
2023-03-27T03:02:32.893Z,97.11
2023-03-27T03:07:38.142Z,96.77
2023-03-27T03:12:40.856Z,96.26
2023-03-27T03:17:43.555Z,96.00
2023-03-27T03:22:46.599Z,95.98
2023-03-27T03:27:49.330Z,95.63
2023-03-27T03:32:52.899Z,95.28
2023-03-27T03:37:57.715Z,95.15
2023-03-27T03:43:00.377Z,95.48
2023-03-27T03:48:03.136Z,94.82
2023-03-27T03:53:05.938Z,94.49
2023-03-27T03:58:09.281Z,94.68
2023-03-27T04:03:14.751Z,94.20
2023-03-27T04:08:17.486Z,93.95
2023-03-27T04:13:20.141Z,93.85
2023-03-27T04:18:32.435Z,93.35
2023-03-27T04:23:35.350Z,92.88
2023-03-27T04:28:40.041Z,93.28
2023-03-27T04:33:46.439Z,92.68
2023-03-27T04:38:49.788Z,92.65
2023-03-27T04:43:52.487Z,92.36
2023-03-27T04:48:56.390Z,91.99
2023-03-27T04:53:59.014Z,91.97
2023-03-27T04:59:03.500Z,91.75
2023-03-27T05:04:06.181Z,90.47
2023-03-27T05:09:09.112Z,89.92
2023-03-27T05:14:11.750Z,89.75
2023-03-27T05:19:14.393Z,89.29
2023-03-27T05:24:17.115Z,88.52
2023-03-27T05:29:19.830Z,87.60
2023-03-27T05:34:22.517Z,86.90
2023-03-27T05:39:25.678Z,86.26
2023-03-27T05:44:28.729Z,85.49
2023-03-27T05:49:33.562Z,84.10
2023-03-27T05:54:36.744Z,84.41
2023-03-27T05:59:39.844Z,84.30
2023-03-27T06:04:42.572Z,83.95
2023-03-27T06:09:45.294Z,81.59
2023-03-27T06:14:47.939Z,80.86
2023-03-27T06:19:50.754Z,79.48
2023-03-27T06:24:56.930Z,77.88
2023-03-27T06:29:59.499Z,78.29
2023-03-27T06:35:02.861Z,77.39
2023-03-27T06:40:10.087Z,76.85
2023-03-27T06:45:12.895Z,76.84
2023-03-27T06:50:15.961Z,76.72
2023-03-27T06:55:21.727Z,77.21
2023-03-27T07:00:28.887Z,76.27
2023-03-27T07:05:36.548Z,76.84
2023-03-27T07:10:40.246Z,77.60
2023-03-27T07:15:43.162Z,77.64
2023-03-27T07:20:47.338Z,77.37
2023-03-27T07:25:51.580Z,78.02
2023-03-27T07:30:54.319Z,77.86
2023-03-27T07:35:57.165Z,77.08
2023-03-27T07:41:06.581Z,77.30
2023-03-27T07:46:09.286Z,75.73
2023-03-27T07:51:14.132Z,75.21
2023-03-27T07:56:17.926Z,74.74
2023-03-27T08:01:21.472Z,74.53
2023-03-27T08:06:24.159Z,73.84
2023-03-27T08:11:30.821Z,73.22
2023-03-27T08:16:33.898Z,70.69
2023-03-27T08:21:36.784Z,69.05
2023-03-27T08:26:39.435Z,68.75
2023-03-27T08:31:43.170Z,67.68
2023-03-27T08:36:46.439Z,68.55
2023-03-27T08:41:55.017Z,67.89
2023-03-27T08:47:09.343Z,66.27
2023-03-27T08:52:16.440Z,64.21
2023-03-27T08:57:24.068Z,64.53
2023-03-27T09:02:48.521Z,65.42
2023-03-27T09:08:21.255Z,62.86
2023-03-27T09:13:46.436Z,61.03
2023-03-27T09:19:22.551Z,60.52
2023-03-27T09:24:34.901Z,61.31
2023-03-27T09:29:41.298Z,60.81
2023-03-27T09:34:44.885Z,60.08
2023-03-27T09:39:51.428Z,57.95
2023-03-27T09:44:57.010Z,58.68
2023-03-27T09:50:19.043Z,58.00
2023-03-27T09:55:30.635Z,56.72
2023-03-27T10:00:34.844Z,58.14
2023-03-27T10:05:38.874Z,59.61
2023-03-27T10:10:45.759Z,64.35
2023-03-27T10:15:48.544Z,67.40
2023-03-27T10:20:54.214Z,69.14
2023-03-27T10:26:04.117Z,70.15
2023-03-27T10:31:24.420Z,71.50
2023-03-27T10:36:27.898Z,72.42
2023-03-27T10:41:34.944Z,72.95
2023-03-27T10:46:40.975Z,73.65
2023-03-27T10:51:46.887Z,74.19
2023-03-27T10:56:53.718Z,74.75
2023-03-27T11:02:13.834Z,76.49
2023-03-27T11:07:49.354Z,78.97
2023-03-27T11:13:04.114Z,79.26
2023-03-27T11:18:15.446Z,79.34
2023-03-27T11:23:36.339Z,79.99
2023-03-27T11:29:09.397Z,79.67
2023-03-27T11:34:29.332Z,81.20
2023-03-27T11:39:40.974Z,80.13
2023-03-27T11:44:50.344Z,79.26
2023-03-27T11:50:08.930Z,78.59
2023-03-27T11:55:22.365Z,78.93
2023-03-27T12:00:25.531Z,79.50
2023-03-27T12:06:08.834Z,79.00
2023-03-27T12:11:15.050Z,77.85
2023-03-27T12:16:32.044Z,76.86
2023-03-27T12:22:22.842Z,75.70
2023-03-27T12:27:45.387Z,75.48
2023-03-27T12:33:12.174Z,73.39
2023-03-27T12:38:33.500Z,70.14
2023-03-27T12:43:41.096Z,70.78
2023-03-27T12:49:13.215Z,70.16
2023-03-27T12:54:25.142Z,68.20
2023-03-27T12:59:29.174Z,67.09
2023-03-27T13:05:26.931Z,64.83
2023-03-27T13:11:02.266Z,64.20
2023-03-27T13:16:05.063Z,63.44
2023-03-27T13:21:30.117Z,62.28
2023-03-27T13:27:05.510Z,62.25
2023-03-27T13:32:36.049Z,63.72
2023-03-27T13:37:48.509Z,62.97
2023-03-27T13:42:55.809Z,62.32
2023-03-27T13:48:01.239Z,62.46
2023-03-27T13:53:25.660Z,61.89
2023-03-27T13:58:43.293Z,62.85
2023-03-27T14:04:33.202Z,63.59
2023-03-27T14:09:46.211Z,63.45
2023-03-27T14:15:16.812Z,61.74
2023-03-27T14:20:50.163Z,60.49
2023-03-27T14:26:03.451Z,57.00
2023-03-27T14:31:08.379Z,55.91
2023-03-27T14:36:16.534Z,56.12
2023-03-27T14:41:23.971Z,58.17
2023-03-27T14:46:27.717Z,59.32
2023-03-27T14:51:37.440Z,56.51
2023-03-27T14:56:47.233Z,54.96
2023-03-27T15:01:54.360Z,54.32
2023-03-27T15:07:18.903Z,55.50
2023-03-27T15:12:23.908Z,55.94
2023-03-27T15:17:30.525Z,57.48
2023-03-27T15:23:00.831Z,57.85
2023-03-27T15:28:10.387Z,59.41
2023-03-27T15:33:22.287Z,59.83
2023-03-27T15:38:30.354Z,60.24
2023-03-27T15:43:33.726Z,60.82
2023-03-27T15:48:44.125Z,61.19
2023-03-27T15:53:49.868Z,61.55
2023-03-27T15:58:59.466Z,61.18
2023-03-27T16:04:25.770Z,61.26
2023-03-27T16:09:32.777Z,58.89
2023-03-27T16:14:41.694Z,57.50
2023-03-27T16:19:59.230Z,57.30
2023-03-27T16:25:03.775Z,56.03
2023-03-27T16:30:09.732Z,55.92
2023-03-27T16:35:12.647Z,56.20
2023-03-27T16:40:15.665Z,55.70
2023-03-27T16:45:18.342Z,54.94
2023-03-27T16:50:24.529Z,55.53
2023-03-27T16:55:27.453Z,55.22
2023-03-27T17:00:31.429Z,55.98
2023-03-27T17:05:34.367Z,56.46
2023-03-27T17:10:37.038Z,56.72
2023-03-27T17:15:40.313Z,56.83
2023-03-27T17:20:43.246Z,57.22
2023-03-27T17:25:47.246Z,57.61
2023-03-27T17:31:03.380Z,58.46
2023-03-27T17:36:13.013Z,58.94
2023-03-27T17:41:17.443Z,59.40
2023-03-27T17:46:20.229Z,60.00
2023-03-27T17:51:24.465Z,60.53
2023-03-27T17:56:27.392Z,60.90
2023-03-27T18:01:30.112Z,61.38
2023-03-27T18:06:33.089Z,61.76
2023-03-27T18:11:35.808Z,62.16
2023-03-27T18:16:38.912Z,62.58
2023-03-27T18:21:42.393Z,62.99
2023-03-27T18:26:45.506Z,63.39
2023-03-27T18:31:48.707Z,64.09
2023-03-27T18:36:52.714Z,64.59
2023-03-27T18:41:58.660Z,65.30
2023-03-27T18:47:02.631Z,66.01
2023-03-27T18:52:05.461Z,65.92
2023-03-27T18:57:08.504Z,66.21
2023-03-27T19:02:14.254Z,66.62
2023-03-27T19:07:17.492Z,67.21
2023-03-27T19:12:20.895Z,67.38
2023-03-27T19:17:24.085Z,67.89
2023-03-27T19:22:26.949Z,68.48
2023-03-27T19:27:38.912Z,69.09
2023-03-27T19:32:42.203Z,69.46
2023-03-27T19:37:45.342Z,69.43
2023-03-27T19:42:48.306Z,69.54
2023-03-27T19:47:51.550Z,69.81
2023-03-27T19:53:07.657Z,70.25
2023-03-27T19:58:11.604Z,70.24
2023-03-27T20:03:16.623Z,70.40
2023-03-27T20:08:21.439Z,70.67
2023-03-27T20:13:24.117Z,71.09
2023-03-27T20:18:32.554Z,71.40
2023-03-27T20:23:37.652Z,71.63
2023-03-27T20:28:40.287Z,71.76
2023-03-27T20:33:43.341Z,71.89
2023-03-27T20:38:46.359Z,72.33
2023-03-27T20:43:51.129Z,72.63
2023-03-27T20:48:54.911Z,73.24
2023-03-27T20:53:58.396Z,73.83
2023-03-27T20:59:01.050Z,74.10
2023-03-27T21:04:03.681Z,74.24
2023-03-27T21:09:07.464Z,74.30
2023-03-27T21:14:10.167Z,74.21
2023-03-27T21:19:13.177Z,74.34
2023-03-27T21:24:16.163Z,75.12
2023-03-27T21:29:20.844Z,75.54
2023-03-27T21:34:23.812Z,75.63
2023-03-27T21:39:26.499Z,75.83
2023-03-27T21:44:29.445Z,75.87
2023-03-27T21:49:32.177Z,75.62
2023-03-27T21:54:35.599Z,75.68
2023-03-27T21:59:38.219Z,75.76
2023-03-27T22:04:40.907Z,76.04
2023-03-27T22:09:44.438Z,76.42
2023-03-27T22:14:47.071Z,76.69
2023-03-27T22:19:49.743Z,76.76
2023-03-27T22:24:52.509Z,76.91
2023-03-27T22:29:55.239Z,76.97
2023-03-27T22:34:57.870Z,77.01
2023-03-27T22:40:00.770Z,77.18
2023-03-27T22:45:07.015Z,77.32
2023-03-27T22:50:09.859Z,77.58
2023-03-27T22:55:12.465Z,78.15
2023-03-27T23:00:15.854Z,78.68
2023-03-27T23:05:18.517Z,79.07
2023-03-27T23:10:21.272Z,79.10
2023-03-27T23:15:30.259Z,78.97
2023-03-27T23:20:33.456Z,79.03
2023-03-27T23:25:36.103Z,79.02
2023-03-27T23:30:39.886Z,79.14
2023-03-27T23:35:42.576Z,79.70
2023-03-27T23:40:45.454Z,80.36
2023-03-27T23:45:48.124Z,80.64
2023-03-27T23:50:52.019Z,80.37
2023-03-27T23:55:56.214Z,80.30
